createdAt,value
2022-12-11T00:01:22.358Z,22.95
2022-12-11T00:03:45.096Z,24.35
2022-12-11T00:06:09.656Z,24.53
2022-12-11T00:08:32.235Z,23.83
2022-12-11T00:10:54.849Z,25.15
2022-12-11T00:13:17.448Z,25.00
2022-12-11T00:15:39.960Z,23.95
2022-12-11T00:18:02.821Z,24.10
2022-12-11T00:20:26.148Z,26.58
2022-12-11T00:22:48.828Z,23.15
2022-12-11T00:25:11.834Z,24.85
2022-12-11T00:27:34.736Z,23.60
2022-12-11T00:29:57.509Z,23.60
2022-12-11T00:32:21.015Z,22.33
2022-12-11T00:34:43.546Z,23.85
2022-12-11T00:37:06.223Z,23.15
2022-12-11T00:39:28.914Z,24.17
2022-12-11T00:41:51.526Z,21.73
2022-12-11T00:44:14.118Z,22.10
2022-12-11T00:46:36.966Z,20.50
2022-12-11T00:48:59.503Z,19.13
2022-12-11T00:51:22.233Z,24.45
2022-12-11T00:53:44.827Z,20.40
2022-12-11T00:56:21.807Z,20.67
2022-12-11T00:58:46.084Z,19.33
2022-12-11T01:01:11.032Z,22.58
2022-12-11T01:03:33.791Z,20.25
2022-12-11T01:05:56.445Z,21.53
2022-12-11T01:08:19.273Z,18.98
2022-12-11T01:10:41.980Z,18.77
2022-12-11T01:13:06.731Z,19.20
2022-12-11T01:15:41.519Z,18.67
2022-12-11T01:18:04.968Z,19.40
2022-12-11T01:20:28.239Z,19.80
2022-12-11T01:22:56.967Z,21.92
2022-12-11T01:25:19.824Z,15.63
2022-12-11T01:27:42.593Z,17.85
2022-12-11T01:30:08.037Z,18.70
2022-12-11T01:32:30.769Z,16.55
2022-12-11T01:34:53.418Z,19.25
2022-12-11T01:37:16.004Z,17.83
2022-12-11T01:39:38.904Z,16.45
2022-12-11T01:42:01.807Z,16.87
2022-12-11T01:44:24.240Z,16.42
2022-12-11T01:46:46.822Z,16.80
2022-12-11T01:49:12.509Z,18.35
2022-12-11T01:51:55.372Z,18.08
2022-12-11T01:54:21.089Z,19.37
2022-12-11T01:56:47.564Z,17.83
2022-12-11T01:59:11.418Z,22.05
2022-12-11T02:01:46.608Z,18.23
2022-12-11T02:04:11.261Z,18.42
2022-12-11T02:06:40.105Z,17.80
2022-12-11T02:09:05.574Z,18.92
2022-12-11T02:12:09.361Z,18.10
2022-12-11T02:14:53.434Z,16.70
2022-12-11T02:17:30.838Z,15.50
2022-12-11T02:20:08.485Z,16.63
2022-12-11T02:22:42.495Z,16.65
2022-12-11T02:25:25.853Z,17.20
2022-12-11T02:27:57.366Z,18.50
2022-12-11T02:30:20.468Z,20.35
2022-12-11T02:32:58.686Z,19.03
2022-12-11T02:35:44.960Z,20.95
2022-12-11T02:38:19.820Z,19.95
2022-12-11T02:40:44.518Z,21.60
2022-12-11T02:43:11.632Z,20.48
2022-12-11T02:45:35.040Z,20.77
2022-12-11T02:48:01.106Z,23.83
2022-12-11T02:50:23.955Z,20.05
2022-12-11T02:52:49.846Z,18.90
2022-12-11T02:55:15.521Z,22.50
2022-12-11T02:57:47.894Z,24.30
2022-12-11T03:00:11.553Z,23.13
2022-12-11T03:02:34.246Z,20.75
2022-12-11T03:04:57.829Z,20.40
2022-12-11T03:07:25.647Z,21.20
2022-12-11T03:09:48.707Z,23.13
2022-12-11T03:12:15.085Z,21.48
2022-12-11T03:14:40.179Z,25.25
2022-12-11T03:17:14.934Z,24.63
2022-12-11T03:19:43.205Z,27.23
2022-12-11T03:22:26.220Z,24.10
2022-12-11T03:25:10.767Z,24.50
2022-12-11T03:27:38.118Z,27.65
2022-12-11T03:30:05.453Z,27.08
2022-12-11T03:32:31.511Z,23.52
2022-12-11T03:34:58.206Z,24.47
2022-12-11T03:37:22.781Z,27.25
2022-12-11T03:39:49.914Z,26.08
2022-12-11T03:42:14.880Z,22.50
2022-12-11T03:44:38.220Z,22.27
2022-12-11T03:47:03.344Z,21.07
2022-12-11T03:52:12.587Z,20.85
2022-12-11T03:54:35.664Z,22.10
2022-12-11T03:57:02.086Z,20.15
2022-12-11T03:59:24.799Z,20.40
2022-12-11T04:01:47.545Z,19.55
2022-12-11T04:04:10.284Z,20.48
2022-12-11T04:06:32.924Z,21.02
2022-12-11T04:08:55.463Z,21.17
2022-12-11T04:11:36.908Z,19.23
2022-12-11T04:14:18.385Z,24.40
2022-12-11T04:16:41.223Z,25.50
2022-12-11T04:19:22.889Z,25.33
2022-12-11T04:22:03.750Z,26.73
2022-12-11T04:24:26.304Z,27.43
2022-12-11T04:26:49.757Z,28.95
2022-12-11T04:29:13.377Z,26.25
2022-12-11T04:31:36.373Z,26.95
2022-12-11T04:33:59.110Z,26.85
2022-12-11T04:36:21.828Z,27.47
2022-12-11T04:38:44.448Z,25.13
2022-12-11T04:41:10.030Z,26.23
2022-12-11T04:43:32.683Z,25.13
2022-12-11T04:46:06.763Z,23.70
2022-12-11T04:48:29.936Z,24.30
2022-12-11T04:50:52.461Z,25.60
2022-12-11T04:53:15.058Z,25.08
2022-12-11T04:55:39.329Z,25.33
2022-12-11T04:58:01.956Z,24.58
2022-12-11T05:00:24.689Z,23.70
2022-12-11T05:02:47.226Z,24.83
2022-12-11T05:05:11.326Z,23.27
2022-12-11T05:07:34.066Z,24.77
2022-12-11T05:09:56.616Z,24.90
2022-12-11T05:12:21.888Z,22.17
2022-12-11T05:14:44.731Z,23.48
2022-12-11T05:17:07.338Z,24.90
2022-12-11T05:19:29.948Z,18.77
2022-12-11T05:21:52.648Z,20.77
2022-12-11T05:24:15.332Z,16.77
2022-12-11T05:26:38.860Z,20.35
2022-12-11T05:29:01.440Z,20.55
2022-12-11T05:31:26.690Z,19.92
2022-12-11T05:33:50.461Z,17.85
2022-12-11T05:36:18.389Z,19.20
2022-12-11T05:38:40.838Z,17.63
2022-12-11T05:41:06.428Z,17.70
2022-12-11T05:43:31.499Z,18.50
2022-12-11T05:45:54.940Z,22.52
2022-12-11T05:48:17.554Z,19.90
2022-12-11T05:50:40.159Z,20.45
2022-12-11T05:53:04.776Z,22.00
2022-12-11T05:55:27.727Z,16.73
2022-12-11T05:57:50.322Z,21.77
2022-12-11T06:00:13.739Z,19.23
2022-12-11T06:02:36.489Z,21.05
2022-12-11T06:04:59.201Z,20.75
2022-12-11T06:07:21.684Z,22.92
2022-12-11T06:09:44.379Z,19.20
2022-12-11T06:12:07.095Z,21.83
2022-12-11T06:14:29.830Z,19.40
2022-12-11T06:16:52.641Z,20.13
2022-12-11T06:19:18.025Z,19.00
2022-12-11T06:21:40.806Z,19.83
2022-12-11T06:24:04.351Z,21.20
2022-12-11T06:26:27.746Z,19.30
2022-12-11T06:28:50.419Z,19.73
2022-12-11T06:31:13.426Z,19.23
2022-12-11T06:33:38.487Z,12.80
2022-12-11T06:36:09.330Z,20.57
2022-12-11T06:38:32.809Z,20.52
2022-12-11T06:41:00.216Z,21.27
2022-12-11T06:43:23.209Z,21.17
2022-12-11T06:45:45.875Z,21.35
2022-12-11T06:48:08.487Z,20.87
2022-12-11T06:50:31.082Z,18.95
2022-12-11T06:52:53.787Z,17.95
2022-12-11T06:55:16.366Z,21.00
2022-12-11T06:57:41.984Z,18.63
2022-12-11T07:00:08.463Z,19.63
2022-12-11T07:02:31.145Z,18.95
2022-12-11T07:04:55.401Z,18.73
2022-12-11T07:07:19.902Z,15.70
2022-12-11T07:09:42.682Z,15.48
2022-12-11T07:12:07.115Z,15.63
2022-12-11T07:14:30.836Z,16.92
2022-12-11T07:16:53.474Z,18.08
2022-12-11T07:19:16.042Z,17.20
2022-12-11T07:21:38.752Z,16.30
2022-12-11T07:24:01.402Z,14.27
2022-12-11T07:26:24.009Z,12.23
2022-12-11T07:28:46.751Z,16.70
2022-12-11T07:31:15.486Z,14.38
2022-12-11T07:33:38.120Z,15.07
2022-12-11T07:36:03.318Z,14.03
2022-12-11T07:38:25.832Z,13.95
2022-12-11T07:40:48.886Z,15.80
2022-12-11T07:43:11.388Z,14.60
2022-12-11T07:45:33.948Z,14.02
2022-12-11T07:47:56.647Z,13.43
2022-12-11T07:50:19.909Z,13.77
2022-12-11T07:52:42.589Z,13.90
2022-12-11T07:55:05.776Z,13.70
2022-12-11T07:57:29.276Z,10.57
2022-12-11T07:59:51.903Z,11.70
2022-12-11T08:02:14.477Z,10.93
2022-12-11T08:04:37.428Z,10.90
2022-12-11T08:07:00.112Z,11.27
2022-12-11T08:09:22.772Z,11.65
2022-12-11T08:11:45.386Z,11.33
2022-12-11T08:14:08.852Z,11.50
2022-12-11T08:16:32.137Z,10.85
2022-12-11T08:18:55.065Z,11.45
2022-12-11T08:21:24.556Z,11.45
2022-12-11T08:23:48.240Z,12.40
2022-12-11T08:26:14.700Z,11.98
2022-12-11T08:28:38.033Z,12.95
2022-12-11T08:31:00.885Z,12.75
2022-12-11T08:33:23.856Z,12.50
2022-12-11T08:35:46.673Z,12.50
2022-12-11T08:38:09.270Z,12.32
2022-12-11T08:40:31.847Z,12.00
2022-12-11T08:42:54.716Z,12.13
2022-12-11T08:45:17.289Z,10.98
2022-12-11T08:47:40.105Z,12.63
2022-12-11T08:50:04.832Z,13.60
2022-12-11T08:52:27.649Z,11.70
2022-12-11T08:54:50.173Z,14.15
2022-12-11T08:57:12.864Z,10.73
2022-12-11T08:59:36.944Z,10.73
2022-12-11T09:02:00.126Z,12.55
2022-12-11T09:04:23.372Z,11.52
2022-12-11T09:06:46.011Z,10.35
2022-12-11T09:09:08.556Z,8.50
2022-12-11T09:11:34.124Z,10.20
2022-12-11T09:13:57.595Z,12.57
2022-12-11T09:16:25.009Z,10.02
2022-12-11T09:18:49.219Z,11.68
2022-12-11T09:21:15.032Z,10.35
2022-12-11T09:23:37.809Z,11.93
2022-12-11T09:26:06.188Z,11.20
2022-12-11T09:28:28.753Z,11.57
2022-12-11T09:30:51.853Z,11.65
2022-12-11T09:33:14.584Z,11.40
2022-12-11T09:35:37.611Z,10.57
2022-12-11T09:38:00.140Z,12.15
2022-12-11T09:40:22.685Z,11.40
2022-12-11T09:43:14.340Z,11.75
2022-12-11T09:45:37.116Z,12.10
2022-12-11T09:48:01.122Z,12.03
2022-12-11T09:50:27.250Z,11.07
2022-12-11T09:53:13.712Z,14.52
2022-12-11T09:55:53.144Z,12.25
2022-12-11T09:58:24.476Z,10.30
2022-12-11T10:01:01.062Z,12.07
2022-12-11T10:03:52.260Z,11.15
2022-12-11T10:06:24.275Z,8.77
2022-12-11T10:08:57.183Z,9.70
2022-12-11T10:11:40.168Z,8.40
2022-12-11T10:14:28.774Z,8.53
2022-12-11T10:17:02.976Z,10.23
2022-12-11T10:19:28.986Z,10.65
2022-12-11T10:21:52.847Z,10.38
2022-12-11T10:24:59.386Z,9.70
2022-12-11T10:27:33.242Z,9.50
2022-12-11T10:30:31.608Z,8.30
2022-12-11T10:33:11.649Z,9.30
2022-12-11T10:35:57.521Z,10.40
2022-12-11T10:38:39.306Z,8.68
2022-12-11T10:41:10.355Z,8.53
2022-12-11T10:43:44.242Z,9.52
2022-12-11T10:46:24.537Z,10.45
2022-12-11T10:48:55.728Z,9.48
2022-12-11T10:51:18.279Z,9.70
2022-12-11T10:53:43.667Z,10.20
2022-12-11T10:56:09.430Z,7.85
2022-12-11T10:58:48.828Z,8.85
2022-12-11T11:01:16.330Z,8.73
2022-12-11T11:04:03.236Z,10.52
2022-12-11T11:06:26.934Z,11.17
2022-12-11T11:08:52.979Z,10.35
2022-12-11T11:11:26.355Z,7.40
2022-12-11T11:13:49.672Z,10.20
2022-12-11T11:16:15.809Z,9.20
2022-12-11T11:18:40.943Z,9.10
2022-12-11T11:21:04.026Z,8.52
2022-12-11T11:23:27.613Z,10.43
2022-12-11T11:26:11.417Z,10.95
2022-12-11T11:28:37.525Z,8.73
2022-12-11T11:31:02.580Z,9.07
2022-12-11T11:33:25.742Z,8.13
2022-12-11T11:35:57.891Z,10.45
2022-12-11T11:38:25.114Z,7.82
2022-12-11T11:41:10.121Z,8.50
2022-12-11T11:43:49.811Z,9.37
2022-12-11T11:46:29.428Z,9.00
2022-12-11T11:48:57.187Z,8.52
2022-12-11T11:51:36.267Z,11.45
2022-12-11T11:54:01.902Z,10.00
2022-12-11T11:56:24.607Z,9.43
2022-12-11T11:58:51.133Z,8.95
2022-12-11T12:01:16.396Z,9.23
2022-12-11T12:03:39.095Z,8.80
2022-12-11T12:06:04.570Z,8.88
2022-12-11T12:08:30.057Z,9.20
2022-12-11T12:11:26.007Z,8.05
2022-12-11T12:14:12.847Z,7.78
2022-12-11T12:17:09.726Z,10.32
2022-12-11T12:19:46.210Z,10.00
2022-12-11T12:22:32.133Z,9.27
2022-12-11T12:25:34.969Z,9.70
2022-12-11T12:28:18.764Z,8.85
2022-12-11T12:31:13.493Z,10.00
2022-12-11T12:34:01.021Z,11.50
2022-12-11T12:36:33.377Z,8.60
2022-12-11T12:39:40.600Z,7.57
2022-12-11T12:42:07.876Z,9.43
2022-12-11T12:45:05.041Z,7.70
2022-12-11T12:47:34.000Z,8.73
2022-12-11T12:49:59.881Z,8.60
2022-12-11T12:52:28.734Z,9.88
2022-12-11T12:55:14.597Z,6.40
2022-12-11T12:57:39.799Z,9.70
2022-12-11T13:00:08.115Z,8.13
2022-12-11T13:02:38.385Z,8.90
2022-12-11T13:05:07.745Z,7.30
2022-12-11T13:07:32.796Z,9.57
2022-12-11T13:10:24.294Z,8.82
2022-12-11T13:12:47.785Z,8.90
2022-12-11T13:15:43.976Z,8.60
2022-12-11T13:18:38.784Z,9.00
2022-12-11T13:21:02.747Z,10.60
2022-12-11T13:23:33.359Z,9.65
2022-12-11T13:26:02.413Z,8.13
2022-12-11T13:28:45.759Z,9.43
2022-12-11T13:31:28.583Z,9.38
2022-12-11T13:33:54.749Z,7.82
2022-12-11T13:36:24.320Z,11.15
2022-12-11T13:38:51.947Z,9.82
2022-12-11T13:41:14.862Z,8.83
2022-12-11T13:43:41.974Z,8.32
2022-12-11T13:46:09.498Z,8.93
2022-12-11T13:48:37.898Z,9.07
2022-12-11T13:51:01.732Z,10.90
2022-12-11T13:53:24.421Z,9.87
2022-12-11T13:56:00.253Z,11.60
2022-12-11T13:58:23.923Z,11.07
2022-12-11T14:01:08.402Z,10.00
2022-12-11T14:03:32.534Z,10.60
2022-12-11T14:05:55.317Z,12.00
2022-12-11T14:08:23.765Z,11.18
2022-12-11T14:10:52.555Z,9.80
2022-12-11T14:13:25.220Z,11.18
2022-12-11T14:15:48.238Z,9.60
2022-12-11T14:18:18.013Z,10.40
2022-12-11T14:20:40.736Z,10.48
2022-12-11T14:23:22.241Z,11.55
2022-12-11T14:25:59.489Z,10.45
2022-12-11T14:28:23.409Z,13.18
2022-12-11T14:30:52.457Z,11.20
2022-12-11T14:33:16.476Z,16.58
2022-12-11T14:35:43.005Z,13.50
2022-12-11T14:38:16.629Z,14.10
2022-12-11T14:40:43.526Z,14.30
2022-12-11T14:43:23.471Z,14.93
2022-12-11T14:45:49.588Z,13.07
2022-12-11T14:48:18.356Z,12.88
2022-12-11T14:50:48.104Z,13.32
2022-12-11T14:53:15.733Z,14.60
2022-12-11T14:55:40.116Z,12.50
2022-12-11T14:58:07.694Z,15.70
2022-12-11T15:00:35.967Z,14.63
2022-12-11T15:03:05.594Z,13.20
2022-12-11T15:05:29.492Z,14.90
2022-12-11T15:08:03.875Z,12.67
2022-12-11T15:10:35.662Z,12.60
2022-12-11T15:12:58.733Z,12.98
2022-12-11T15:15:21.618Z,14.70
2022-12-11T15:17:48.354Z,13.20
2022-12-11T15:20:27.072Z,14.83
2022-12-11T15:22:50.799Z,14.32
2022-12-11T15:25:22.670Z,13.18
2022-12-11T15:27:45.403Z,12.75
2022-12-11T15:30:26.896Z,14.32
2022-12-11T15:32:49.736Z,14.07
2022-12-11T15:35:24.555Z,13.98
2022-12-11T15:37:56.301Z,13.98
2022-12-11T15:40:19.013Z,16.13
2022-12-11T15:42:42.302Z,13.85
2022-12-11T15:45:15.641Z,11.10
2022-12-11T15:47:38.362Z,13.55
2022-12-11T15:50:07.811Z,12.75
2022-12-11T15:52:31.080Z,14.68
2022-12-11T15:54:54.022Z,12.68
2022-12-11T15:57:21.194Z,13.40
2022-12-11T15:59:48.935Z,13.10
2022-12-11T16:02:13.147Z,12.07
2022-12-11T16:04:35.725Z,11.43
2022-12-11T16:06:58.352Z,12.70
2022-12-11T16:09:21.277Z,14.27
2022-12-11T16:11:43.937Z,13.88
2022-12-11T16:14:06.527Z,14.25
2022-12-11T16:16:30.191Z,12.13
2022-12-11T16:18:52.882Z,13.98
2022-12-11T16:21:21.170Z,12.87
2022-12-11T16:23:44.049Z,13.55
2022-12-11T16:26:09.618Z,13.18
2022-12-11T16:28:32.231Z,14.25
2022-12-11T16:30:55.033Z,12.43
2022-12-11T16:33:17.884Z,12.63
2022-12-11T16:35:42.043Z,9.55
2022-12-11T16:38:04.844Z,12.73
2022-12-11T16:40:27.608Z,13.60
2022-12-11T16:42:52.953Z,13.40
2022-12-11T16:45:25.391Z,13.43
2022-12-11T16:47:48.696Z,12.25
2022-12-11T16:50:14.152Z,12.05
2022-12-11T16:52:37.287Z,11.35
2022-12-11T16:54:59.893Z,12.27
2022-12-11T16:57:22.945Z,13.40
2022-12-11T16:59:47.832Z,10.10
2022-12-11T17:02:11.753Z,11.23
2022-12-11T17:04:34.439Z,13.52
2022-12-11T17:06:57.041Z,13.05
2022-12-11T17:09:19.599Z,11.90
2022-12-11T17:11:42.200Z,14.38
2022-12-11T17:14:04.700Z,11.80
2022-12-11T17:16:32.430Z,13.75
2022-12-11T17:18:55.649Z,13.95
2022-12-11T17:21:19.964Z,13.40
2022-12-11T17:23:44.035Z,16.20
2022-12-11T17:26:10.597Z,12.18
2022-12-11T17:28:33.408Z,12.40
2022-12-11T17:30:56.468Z,12.50
2022-12-11T17:33:19.245Z,10.37
2022-12-11T17:35:42.143Z,11.98
2022-12-11T17:38:05.054Z,12.10
2022-12-11T17:40:29.257Z,12.82
2022-12-11T17:42:52.547Z,14.55
2022-12-11T17:45:15.403Z,13.30
2022-12-11T17:47:39.263Z,11.57
2022-12-11T17:50:02.148Z,14.07
2022-12-11T17:52:28.384Z,12.82
2022-12-11T17:54:54.504Z,14.38
2022-12-11T17:57:17.065Z,11.47
2022-12-11T17:59:40.348Z,11.82
2022-12-11T18:02:03.539Z,13.13
2022-12-11T18:04:26.299Z,11.38
2022-12-11T18:06:49.277Z,12.70
2022-12-11T18:09:12.523Z,13.97
2022-12-11T18:11:36.661Z,13.90
2022-12-11T18:13:59.721Z,12.95
2022-12-11T18:16:25.441Z,14.77
2022-12-11T18:18:48.892Z,12.93
2022-12-11T18:21:27.032Z,12.40
2022-12-11T18:23:50.932Z,12.10
2022-12-11T18:26:14.780Z,12.82
2022-12-11T18:28:37.703Z,14.65
2022-12-11T18:31:02.076Z,15.38
2022-12-11T18:33:24.942Z,14.50
2022-12-11T18:35:50.370Z,11.68
2022-12-11T18:38:13.257Z,15.18
2022-12-11T18:40:36.100Z,16.65
2022-12-11T18:42:59.288Z,14.60
2022-12-11T18:45:22.019Z,17.80
2022-12-11T18:47:44.912Z,20.17
2022-12-11T18:50:08.480Z,15.95
2022-12-11T18:52:31.448Z,17.95
2022-12-11T18:54:54.600Z,19.58
2022-12-11T18:57:18.070Z,20.73
2022-12-11T18:59:42.335Z,23.65
2022-12-11T19:02:05.524Z,19.75
2022-12-11T19:04:28.441Z,16.02
2022-12-11T19:06:51.307Z,20.52
2022-12-11T19:09:14.129Z,21.87
2022-12-11T19:11:40.077Z,20.42
2022-12-11T19:14:05.057Z,21.10
2022-12-11T19:16:36.682Z,22.50
2022-12-11T19:19:00.810Z,24.88
2022-12-11T19:21:23.871Z,26.37
2022-12-11T19:23:47.773Z,25.42
2022-12-11T19:26:15.757Z,25.90
2022-12-11T19:28:38.680Z,25.13
2022-12-11T19:31:01.853Z,22.45
2022-12-11T19:33:24.888Z,19.77
2022-12-11T19:35:48.224Z,22.65
2022-12-11T19:38:12.985Z,20.35
2022-12-11T19:40:45.640Z,20.70
2022-12-11T19:43:08.667Z,21.35
2022-12-11T19:45:31.486Z,17.53
2022-12-11T19:47:54.276Z,18.38
2022-12-11T19:50:17.413Z,19.52
2022-12-11T19:52:45.991Z,22.77
2022-12-11T19:55:10.889Z,17.83
2022-12-11T19:57:35.144Z,17.33
2022-12-11T19:59:59.730Z,20.95
2022-12-11T20:02:22.824Z,17.90
2022-12-11T20:04:45.684Z,20.17
2022-12-11T20:07:08.528Z,20.17
2022-12-11T20:09:33.705Z,17.60
2022-12-11T20:11:56.857Z,20.60
2022-12-11T20:14:23.127Z,17.33
2022-12-11T20:17:10.123Z,20.23
2022-12-11T20:19:32.105Z,20.10
2022-12-11T20:21:56.074Z,19.47
2022-12-11T20:24:20.017Z,15.02
2022-12-11T20:26:43.005Z,18.27
2022-12-11T20:29:08.414Z,21.00
2022-12-11T20:31:31.572Z,16.45
2022-12-11T20:33:56.483Z,18.80
2022-12-11T20:36:20.981Z,16.25
2022-12-11T20:38:43.529Z,18.00
2022-12-11T20:41:09.717Z,18.90
2022-12-11T20:43:32.741Z,17.63
2022-12-11T20:45:55.584Z,15.90
2022-12-11T20:48:18.449Z,19.00
2022-12-11T20:50:41.545Z,18.38
2022-12-11T20:53:04.460Z,17.15
2022-12-11T20:55:26.995Z,19.40
2022-12-11T20:57:50.063Z,18.70
2022-12-11T21:00:15.774Z,12.77
2022-12-11T21:02:40.192Z,17.27
2022-12-11T21:05:03.343Z,17.77
2022-12-11T21:07:26.180Z,17.73
2022-12-11T21:09:48.960Z,16.57
2022-12-11T21:12:11.692Z,17.23
2022-12-11T21:14:35.424Z,17.63
2022-12-11T21:16:59.168Z,19.35
2022-12-11T21:19:23.046Z,16.77
2022-12-11T21:21:46.657Z,17.63
2022-12-11T21:24:16.031Z,17.25
2022-12-11T21:26:38.792Z,21.52
2022-12-11T21:29:01.616Z,15.63
2022-12-11T21:31:24.942Z,18.98
2022-12-11T21:33:48.310Z,19.43
2022-12-11T21:36:13.075Z,19.65
2022-12-11T21:38:35.709Z,15.40
2022-12-11T21:41:05.977Z,14.40
2022-12-11T21:43:28.526Z,17.20
2022-12-11T21:46:01.434Z,16.77
2022-12-11T21:48:24.551Z,16.70
2022-12-11T21:50:47.300Z,19.70
2022-12-11T21:53:09.923Z,16.55
2022-12-11T21:55:32.525Z,12.05
2022-12-11T21:57:55.504Z,17.80
2022-12-11T22:00:18.669Z,15.27
2022-12-11T22:02:41.664Z,16.30
2022-12-11T22:05:04.518Z,7.40
2022-12-11T22:07:27.205Z,14.48
2022-12-11T22:09:50.228Z,14.77
2022-12-11T22:12:28.267Z,15.05
2022-12-11T22:14:51.120Z,13.95
2022-12-11T22:17:13.946Z,15.75
2022-12-11T22:19:40.998Z,14.45
2022-12-11T22:22:03.540Z,14.67
2022-12-11T22:24:26.227Z,14.43
2022-12-11T22:26:49.421Z,15.15
2022-12-11T22:29:12.106Z,13.23
2022-12-11T22:31:34.628Z,12.05
2022-12-11T22:33:57.491Z,10.73
2022-12-11T22:36:21.464Z,11.68
2022-12-11T22:38:44.067Z,12.10
2022-12-11T22:41:30.754Z,15.02
2022-12-11T22:43:54.478Z,13.48
2022-12-11T22:46:19.615Z,9.67
2022-12-11T22:48:42.369Z,10.57
2022-12-11T22:51:06.458Z,10.27
2022-12-11T22:53:29.149Z,11.95
2022-12-11T22:55:51.636Z,8.10
2022-12-11T22:58:20.039Z,12.27
2022-12-11T23:00:44.402Z,11.15
2022-12-11T23:03:07.580Z,10.82
2022-12-11T23:05:30.370Z,12.65
2022-12-11T23:07:53.027Z,11.50
2022-12-11T23:10:15.715Z,13.00
2022-12-11T23:12:38.953Z,11.82
2022-12-11T23:15:01.935Z,10.77
2022-12-11T23:17:24.669Z,12.32
2022-12-11T23:19:50.847Z,13.65
2022-12-11T23:22:13.658Z,13.83
2022-12-11T23:24:36.218Z,10.18
2022-12-11T23:27:00.179Z,10.10
2022-12-11T23:29:22.921Z,12.95
2022-12-11T23:31:46.466Z,11.20
2022-12-11T23:34:09.144Z,11.70
2022-12-11T23:36:31.768Z,12.50
2022-12-11T23:38:55.221Z,10.93
2022-12-11T23:41:18.627Z,14.82
2022-12-11T23:43:42.489Z,13.15
2022-12-11T23:46:10.779Z,13.33
2022-12-11T23:48:33.856Z,11.82
2022-12-11T23:51:01.122Z,11.43
2022-12-11T23:53:23.695Z,13.27
2022-12-11T23:55:46.421Z,12.35
2022-12-11T23:58:10.653Z,12.07
